TVF47D EDDN-EDDB
Flight info
| Callsign | TVF47D |
|---|---|
| Flight time | N/A |
| Altitude | 31000 |
| Route | ERETO1C ERETO DCT TABAT T202 MILGU/N0433F270 T202 ATGUP |
| Aircraft | B738/M-SDE2E3FGHIRWXY/LB1 |
Departure
| Time | 2026-04-28 18:50 |
|---|---|
| Airport | Nuremberg Airport (EDDN) |
Arrival
| Time | N/A |
|---|---|
| Airport | Berlin Brandenburg Airport (EDDB) |
| Time | Latitude | Longitude | Altitude | Speed | Heading |
|---|---|---|---|---|---|
| 2026-04-28 18:34 | 49.49516 | 11.07791 | 1034 ft | 0 kts | 188° |
| 2026-04-28 18:42 | 49.49531 | 11.07794 | 1034 ft | 3 kts | 188° |
| 2026-04-28 18:42 | 49.49549 | 11.07800 | 1035 ft | 3 kts | 207° |
| 2026-04-28 18:42 | 49.49563 | 11.07817 | 1035 ft | 3 kts | 237° |
| 2026-04-28 18:42 | 49.49570 | 11.07843 | 1036 ft | 3 kts | 267° |
| 2026-04-28 18:43 | 49.49570 | 11.07854 | 1036 ft | 0 kts | 280° |
| 2026-04-28 18:43 | 49.49587 | 11.07757 | 1036 ft | 21 kts | 279° |
| 2026-04-28 18:44 | 49.49611 | 11.07544 | 1035 ft | 20 kts | 279° |
| 2026-04-28 18:44 | 49.49684 | 11.07226 | 1035 ft | 13 kts | 355° |
| 2026-04-28 18:44 | 49.49736 | 11.07190 | 1036 ft | 13 kts | 301° |
| 2026-04-28 18:45 | 49.49756 | 11.07031 | 1032 ft | 16 kts | 278° |
| 2026-04-28 18:45 | 49.49771 | 11.06861 | 1030 ft | 16 kts | 277° |
| 2026-04-28 18:45 | 49.49786 | 11.06698 | 1028 ft | 15 kts | 278° |
| 2026-04-28 18:45 | 49.49801 | 11.06542 | 1027 ft | 14 kts | 279° |
| 2026-04-28 18:46 | 49.49817 | 11.06392 | 1030 ft | 14 kts | 279° |
| 2026-04-28 18:46 | 49.49831 | 11.06250 | 1029 ft | 13 kts | 278° |
| 2026-04-28 18:46 | 49.49845 | 11.06113 | 1029 ft | 13 kts | 280° |
| 2026-04-28 18:46 | 49.49876 | 11.05992 | 1032 ft | 12 kts | 321° |
| 2026-04-28 18:47 | 49.49925 | 11.05956 | 1033 ft | 7 kts | 336° |
| 2026-04-28 18:47 | 49.49951 | 11.05943 | 1032 ft | 0 kts | 345° |
| 2026-04-28 18:47 | 49.49954 | 11.05942 | 1032 ft | 5 kts | 345° |
| 2026-04-28 18:47 | 49.50035 | 11.05980 | 1032 ft | 14 kts | 56° |
| 2026-04-28 18:48 | 49.50041 | 11.06095 | 1033 ft | 0 kts | 97° |
| 2026-04-28 18:49 | 49.50026 | 11.06232 | 1033 ft | 42 kts | 99° |
| 2026-04-28 18:49 | 49.50007 | 11.06428 | 1031 ft | 67 kts | 98° |
| 2026-04-28 18:49 | 49.49801 | 11.08497 | 1050 ft | 163 kts | 95° |
| 2026-04-28 18:49 | 49.49587 | 11.10307 | 1579 ft | 173 kts | 98° |
| 2026-04-28 18:50 | 49.49359 | 11.12073 | 2498 ft | 165 kts | 99° |
| 2026-04-28 18:50 | 49.49154 | 11.13812 | 3188 ft | 171 kts | 98° |
| 2026-04-28 18:50 | 49.48953 | 11.15698 | 3666 ft | 185 kts | 96° |
| 2026-04-28 18:50 | 49.48905 | 11.17637 | 4489 ft | 180 kts | 81° |
| 2026-04-28 18:51 | 49.49347 | 11.19490 | 4963 ft | 199 kts | 58° |
| 2026-04-28 18:51 | 49.50290 | 11.21220 | 5174 ft | 222 kts | 44° |
| 2026-04-28 18:51 | 49.51536 | 11.22802 | 5417 ft | 244 kts | 38° |
| 2026-04-28 18:51 | 49.52960 | 11.24455 | 5722 ft | 265 kts | 37° |
| 2026-04-28 18:52 | 49.54452 | 11.26193 | 6449 ft | 272 kts | 37° |
| 2026-04-28 18:52 | 49.55967 | 11.27978 | 6853 ft | 274 kts | 37° |
| 2026-04-28 18:52 | 49.57487 | 11.29782 | 6999 ft | 278 kts | 37° |
| 2026-04-28 18:52 | 49.58504 | 11.30985 | 6988 ft | 277 kts | 35° |
| 2026-04-28 18:53 | 49.60861 | 11.32426 | 6997 ft | 275 kts | 9° |
| 2026-04-28 18:53 | 49.62749 | 11.32921 | 6988 ft | 276 kts | 9° |
| 2026-04-28 18:53 | 49.64649 | 11.33397 | 6989 ft | 276 kts | 9° |
| 2026-04-28 18:53 | 49.66550 | 11.33852 | 6985 ft | 277 kts | 8° |
| 2026-04-28 18:54 | 49.68468 | 11.34262 | 7146 ft | 281 kts | 7° |
| 2026-04-28 18:54 | 49.70419 | 11.34669 | 7978 ft | 280 kts | 7° |
| 2026-04-28 18:54 | 49.72344 | 11.35070 | 8899 ft | 280 kts | 6° |
| 2026-04-28 18:54 | 49.74287 | 11.35476 | 9718 ft | 283 kts | 6° |
| 2026-04-28 18:55 | 49.76251 | 11.35889 | 10470 ft | 288 kts | 6° |
| 2026-04-28 18:55 | 49.77598 | 11.36172 | 10662 ft | 303 kts | 6° |
| 2026-04-28 18:55 | 49.80538 | 11.36790 | 10905 ft | 334 kts | 6° |
| 2026-04-28 18:55 | 49.82918 | 11.37294 | 11121 ft | 355 kts | 6° |
| 2026-04-28 18:56 | 49.84554 | 11.37642 | 11440 ft | 361 kts | 6° |
| 2026-04-28 18:56 | 49.87916 | 11.38361 | 12365 ft | 366 kts | 6° |
| 2026-04-28 18:56 | 49.89593 | 11.38722 | 12866 ft | 368 kts | 6° |
| 2026-04-28 18:56 | 49.92969 | 11.39448 | 13825 ft | 372 kts | 5° |
| 2026-04-28 18:57 | 49.95576 | 11.40009 | 14462 ft | 376 kts | 5° |
| 2026-04-28 18:57 | 49.98155 | 11.40563 | 15095 ft | 379 kts | 5° |
| 2026-04-28 18:57 | 50.00775 | 11.41127 | 15741 ft | 382 kts | 5° |
| 2026-04-28 18:57 | 50.03412 | 11.41695 | 16383 ft | 384 kts | 5° |
| 2026-04-28 18:58 | 50.06074 | 11.42269 | 17007 ft | 387 kts | 5° |
| 2026-04-28 18:58 | 50.07867 | 11.42657 | 17710 ft | 380 kts | 5° |
| 2026-04-28 18:58 | 50.11260 | 11.43397 | 19165 ft | 366 kts | 4° |
| 2026-04-28 18:58 | 50.13779 | 11.43944 | 19816 ft | 367 kts | 4° |
| 2026-04-28 18:59 | 50.15496 | 11.44313 | 20131 ft | 371 kts | 4° |
| 2026-04-28 18:59 | 50.18909 | 11.45048 | 20791 ft | 377 kts | 4° |
| 2026-04-28 18:59 | 50.21535 | 11.45614 | 21180 ft | 384 kts | 4° |
| 2026-04-28 18:59 | 50.24203 | 11.46191 | 21610 ft | 390 kts | 4° |
| 2026-04-28 19:00 | 50.26905 | 11.46782 | 22147 ft | 392 kts | 3° |
| 2026-04-28 19:00 | 50.29608 | 11.47370 | 22753 ft | 394 kts | 5° |
| 2026-04-28 19:00 | 50.31402 | 11.47761 | 23269 ft | 391 kts | 5° |
| 2026-04-28 19:00 | 50.34102 | 11.48351 | 23818 ft | 394 kts | 4° |
| 2026-04-28 19:01 | 50.36830 | 11.48947 | 24150 ft | 399 kts | 4° |
| 2026-04-28 19:01 | 50.39593 | 11.49551 | 24540 ft | 402 kts | 4° |
| 2026-04-28 19:01 | 50.42366 | 11.50160 | 24978 ft | 404 kts | 4° |
| 2026-04-28 19:01 | 50.45161 | 11.50773 | 25384 ft | 406 kts | 4° |
| 2026-04-28 19:02 | 50.47959 | 11.51388 | 25768 ft | 409 kts | 4° |
| 2026-04-28 19:02 | 50.50805 | 11.52011 | 25932 ft | 417 kts | 4° |
| 2026-04-28 19:02 | 50.53702 | 11.52841 | 25997 ft | 431 kts | 11° |
| 2026-04-28 19:02 | 50.56568 | 11.54445 | 26082 ft | 445 kts | 20° |
| 2026-04-28 19:03 | 50.59322 | 11.56822 | 26152 ft | 458 kts | 30° |
| 2026-04-28 19:03 | 50.61934 | 11.59797 | 26232 ft | 468 kts | 33° |
| 2026-04-28 19:03 | 50.64540 | 11.62926 | 26296 ft | 475 kts | 33° |
| 2026-04-28 19:03 | 50.67198 | 11.66081 | 26367 ft | 481 kts | 33° |
| 2026-04-28 19:04 | 50.69906 | 11.69218 | 26497 ft | 485 kts | 32° |
| 2026-04-28 19:04 | 50.72639 | 11.72347 | 26710 ft | 486 kts | 32° |
| 2026-04-28 19:04 | 50.75372 | 11.75481 | 26997 ft | 485 kts | 32° |
| 2026-04-28 19:04 | 50.78075 | 11.78592 | 27262 ft | 473 kts | 32° |
| 2026-04-28 19:05 | 50.80672 | 11.81597 | 27246 ft | 452 kts | 32° |
| 2026-04-28 19:05 | 50.83156 | 11.84474 | 27263 ft | 434 kts | 32° |
| 2026-04-28 19:05 | 50.85546 | 11.87239 | 27255 ft | 418 kts | 32° |
| 2026-04-28 19:05 | 50.87903 | 11.89961 | 27287 ft | 421 kts | 32° |
| 2026-04-28 19:06 | 50.90273 | 11.92701 | 27290 ft | 422 kts | 32° |
| 2026-04-28 19:06 | 50.92639 | 11.95447 | 27069 ft | 421 kts | 32° |
| 2026-04-28 19:06 | 50.94995 | 11.98188 | 26640 ft | 417 kts | 32° |
| 2026-04-28 19:06 | 50.97314 | 12.00892 | 26236 ft | 411 kts | 32° |
| 2026-04-28 19:07 | 50.99604 | 12.03565 | 25842 ft | 406 kts | 32° |
| 2026-04-28 19:07 | 51.01866 | 12.06207 | 25444 ft | 401 kts | 32° |
| 2026-04-28 19:07 | 51.04098 | 12.08817 | 25054 ft | 397 kts | 32° |
| 2026-04-28 19:07 | 51.06313 | 12.11407 | 24656 ft | 394 kts | 32° |
| 2026-04-28 19:08 | 51.08515 | 12.13986 | 24229 ft | 392 kts | 32° |
| 2026-04-28 19:08 | 51.10621 | 12.16456 | 23820 ft | 390 kts | 32° |
| 2026-04-28 19:08 | 51.12770 | 12.18978 | 23330 ft | 388 kts | 32° |
| 2026-04-28 19:08 | 51.14937 | 12.21525 | 22846 ft | 386 kts | 32° |
| 2026-04-28 19:09 | 51.17095 | 12.24066 | 22385 ft | 384 kts | 32° |
| 2026-04-28 19:09 | 51.19237 | 12.26595 | 22321 ft | 384 kts | 32° |
| 2026-04-28 19:09 | 51.21378 | 12.29124 | 22295 ft | 382 kts | 32° |
| 2026-04-28 19:09 | 51.23506 | 12.31643 | 22297 ft | 381 kts | 32° |
| 2026-04-28 19:10 | 51.25634 | 12.34164 | 22290 ft | 381 kts | 32° |
| 2026-04-28 19:10 | 51.27763 | 12.36687 | 22292 ft | 381 kts | 33° |
| 2026-04-28 19:10 | 51.29889 | 12.39211 | 22295 ft | 381 kts | 33° |
| 2026-04-28 19:10 | 51.31949 | 12.41883 | 22288 ft | 384 kts | 40° |
| 2026-04-28 19:11 | 51.33810 | 12.44961 | 22304 ft | 385 kts | 43° |
| 2026-04-28 19:11 | 51.35621 | 12.48114 | 22294 ft | 385 kts | 44° |
| 2026-04-28 19:11 | 51.37430 | 12.51281 | 22297 ft | 385 kts | 43° |
| 2026-04-28 19:11 | 51.39244 | 12.54431 | 22296 ft | 385 kts | 43° |
| 2026-04-28 19:12 | 51.41069 | 12.57571 | 22295 ft | 385 kts | 43° |
| 2026-04-28 19:12 | 51.42898 | 12.60703 | 22295 ft | 385 kts | 43° |
| 2026-04-28 19:12 | 51.44725 | 12.63831 | 22297 ft | 384 kts | 43° |
| 2026-04-28 19:12 | 51.46467 | 12.67094 | 22293 ft | 388 kts | 50° |
| 2026-04-28 19:13 | 51.47856 | 12.70817 | 22301 ft | 391 kts | 60° |
| 2026-04-28 19:13 | 51.49024 | 12.74778 | 22307 ft | 392 kts | 62° |
| 2026-04-28 19:13 | 51.50157 | 12.78758 | 22299 ft | 392 kts | 62° |
| 2026-04-28 19:13 | 51.51295 | 12.82744 | 21886 ft | 393 kts | 62° |
| 2026-04-28 19:14 | 51.52438 | 12.86705 | 21465 ft | 389 kts | 61° |
| 2026-04-28 19:14 | 51.53577 | 12.90614 | 21056 ft | 384 kts | 61° |
| 2026-04-28 19:14 | 51.54709 | 12.94477 | 20645 ft | 380 kts | 61° |
| 2026-04-28 19:14 | 51.55831 | 12.98307 | 20204 ft | 378 kts | 62° |
| 2026-04-28 19:15 | 51.56955 | 13.02093 | 19806 ft | 371 kts | 59° |
| 2026-04-28 19:15 | 51.58302 | 13.05537 | 19404 ft | 358 kts | 50° |
| 2026-04-28 19:15 | 51.59775 | 13.08692 | 18998 ft | 349 kts | 49° |
| 2026-04-28 19:15 | 51.60744 | 13.10726 | 18724 ft | 343 kts | 49° |
| 2026-04-28 19:16 | 51.62664 | 13.14745 | 18120 ft | 334 kts | 49° |
| 2026-04-28 19:16 | 51.64065 | 13.17693 | 17656 ft | 328 kts | 49° |
| 2026-04-28 19:16 | 51.65432 | 13.20586 | 17205 ft | 322 kts | 49° |
| 2026-04-28 19:16 | 51.66777 | 13.23448 | 16758 ft | 318 kts | 49° |
| 2026-04-28 19:17 | 51.68100 | 13.26272 | 16309 ft | 314 kts | 49° |
| 2026-04-28 19:17 | 51.69407 | 13.29069 | 15892 ft | 311 kts | 49° |
| 2026-04-28 19:17 | 51.70681 | 13.31802 | 15470 ft | 308 kts | 49° |
| 2026-04-28 19:17 | 51.71963 | 13.34554 | 15051 ft | 305 kts | 49° |
| 2026-04-28 19:18 | 51.73247 | 13.37318 | 14633 ft | 303 kts | 49° |
| 2026-04-28 19:18 | 51.74487 | 13.39988 | 14346 ft | 298 kts | 49° |
| 2026-04-28 19:18 | 51.75718 | 13.42643 | 14315 ft | 297 kts | 49° |
| 2026-04-28 19:18 | 51.76971 | 13.45345 | 14313 ft | 303 kts | 49° |
| 2026-04-28 19:19 | 51.78243 | 13.48090 | 14307 ft | 306 kts | 49° |
| 2026-04-28 19:19 | 51.79513 | 13.50838 | 14296 ft | 304 kts | 50° |
| 2026-04-28 19:19 | 51.80774 | 13.53571 | 14291 ft | 303 kts | 50° |
| 2026-04-28 19:19 | 51.82033 | 13.56303 | 14292 ft | 302 kts | 50° |
| 2026-04-28 19:20 | 51.83286 | 13.59023 | 14294 ft | 302 kts | 50° |
| 2026-04-28 19:20 | 51.84538 | 13.61743 | 14299 ft | 301 kts | 50° |
| 2026-04-28 19:20 | 51.85790 | 13.64468 | 14301 ft | 301 kts | 50° |
| 2026-04-28 19:20 | 51.87043 | 13.67195 | 14309 ft | 304 kts | 50° |
| 2026-04-28 19:21 | 51.88318 | 13.69972 | 14312 ft | 310 kts | 50° |
| 2026-04-28 19:21 | 51.89601 | 13.72771 | 14303 ft | 307 kts | 50° |
| 2026-04-28 19:21 | 51.90866 | 13.75538 | 14292 ft | 303 kts | 50° |
| 2026-04-28 19:21 | 51.92116 | 13.78273 | 14295 ft | 302 kts | 50° |
| 2026-04-28 19:22 | 51.93369 | 13.81017 | 14310 ft | 304 kts | 50° |
| 2026-04-28 19:22 | 51.94221 | 13.82879 | 14311 ft | 305 kts | 50° |